createdAt,value
2022-10-19T00:02:08.607Z,68.43
2022-10-19T00:05:11.678Z,68.29
2022-10-19T00:08:14.196Z,68.53
2022-10-19T00:11:16.995Z,68.70
2022-10-19T00:14:22.499Z,69.14
2022-10-19T00:17:25.439Z,68.81
2022-10-19T00:20:36.014Z,69.09
2022-10-19T00:23:39.022Z,69.35
2022-10-19T00:26:41.451Z,69.72
2022-10-19T00:29:44.333Z,70.07
2022-10-19T00:32:48.083Z,70.76
2022-10-19T00:35:52.363Z,71.10
2022-10-19T00:38:55.666Z,71.34
2022-10-19T00:41:58.848Z,71.66
2022-10-19T00:45:05.636Z,71.34
2022-10-19T00:48:10.461Z,71.33
2022-10-19T00:51:13.600Z,71.91
2022-10-19T00:54:17.782Z,71.45
2022-10-19T00:57:20.458Z,71.91
2022-10-19T01:00:23.449Z,71.88
2022-10-19T01:03:25.993Z,71.74
2022-10-19T01:06:29.661Z,71.71
2022-10-19T01:09:32.203Z,71.89
2022-10-19T01:12:58.542Z,72.11
2022-10-19T01:16:15.608Z,72.57
2022-10-19T01:19:46.487Z,72.75
2022-10-19T01:23:17.132Z,72.87
2022-10-19T01:26:44.740Z,73.23
2022-10-19T01:30:16.846Z,73.72
2022-10-19T01:33:31.820Z,74.58
2022-10-19T01:36:45.420Z,74.61
2022-10-19T01:39:55.468Z,75.01
2022-10-19T01:43:20.138Z,75.61
2022-10-19T01:46:44.053Z,75.61
2022-10-19T01:50:11.693Z,75.49
2022-10-19T01:53:18.277Z,75.74
2022-10-19T01:56:24.844Z,76.27
2022-10-19T01:59:27.985Z,76.43
2022-10-19T02:02:31.056Z,76.27
2022-10-19T02:05:34.773Z,76.24
2022-10-19T02:08:49.224Z,75.91
2022-10-19T02:11:57.271Z,76.07
2022-10-19T02:15:07.716Z,76.16
2022-10-19T02:18:13.691Z,76.13
2022-10-19T02:21:16.460Z,76.20
2022-10-19T02:24:19.368Z,75.71
2022-10-19T02:27:22.077Z,75.37
2022-10-19T02:30:25.450Z,75.66
2022-10-19T02:33:29.086Z,75.83
2022-10-19T02:36:32.222Z,75.06
2022-10-19T02:39:35.072Z,74.91
2022-10-19T02:42:48.401Z,75.03
2022-10-19T02:46:07.058Z,75.39
2022-10-19T02:49:10.753Z,75.18
2022-10-19T02:52:14.185Z,75.07
2022-10-19T02:55:17.105Z,75.88
2022-10-19T02:58:19.783Z,75.48
2022-10-19T03:01:22.618Z,75.77
2022-10-19T03:04:25.347Z,75.44
2022-10-19T03:07:28.512Z,75.49
2022-10-19T03:10:31.135Z,75.94
2022-10-19T03:13:34.093Z,75.96
2022-10-19T03:16:36.595Z,76.16
2022-10-19T03:19:39.957Z,77.08
2022-10-19T03:22:42.446Z,78.11
2022-10-19T03:25:45.323Z,78.25
2022-10-19T03:28:49.552Z,79.06
2022-10-19T03:31:52.525Z,79.21
2022-10-19T03:34:55.110Z,79.92
2022-10-19T03:37:57.935Z,79.92
2022-10-19T03:41:00.719Z,79.54
2022-10-19T03:44:04.052Z,79.62
2022-10-19T03:47:06.566Z,78.99
2022-10-19T03:50:13.156Z,78.27
2022-10-19T03:53:16.007Z,77.99
2022-10-19T03:56:20.612Z,78.09
2022-10-19T03:59:24.340Z,78.38
2022-10-19T04:02:27.263Z,79.06
2022-10-19T04:05:30.101Z,79.32
2022-10-19T04:08:33.044Z,79.27
2022-10-19T04:11:36.516Z,79.46
2022-10-19T04:14:52.862Z,79.68
2022-10-19T04:17:59.023Z,80.48
2022-10-19T04:21:05.791Z,80.63
2022-10-19T04:24:11.335Z,81.50
2022-10-19T04:27:13.827Z,82.02
2022-10-19T04:30:16.678Z,81.72
2022-10-19T04:33:19.489Z,81.93
2022-10-19T04:36:22.361Z,82.46
2022-10-19T04:39:24.974Z,82.71
2022-10-19T04:42:27.782Z,83.08
2022-10-19T04:45:30.372Z,83.38
2022-10-19T04:48:34.900Z,84.19
2022-10-19T04:51:37.704Z,84.09
2022-10-19T04:54:40.555Z,84.50
2022-10-19T04:57:43.404Z,85.29
2022-10-19T05:00:47.251Z,85.99
2022-10-19T05:03:54.001Z,86.40
2022-10-19T05:06:56.865Z,86.68
2022-10-19T05:09:59.543Z,84.75
2022-10-19T05:13:02.674Z,83.38
2022-10-19T05:16:06.654Z,85.02
2022-10-19T05:19:15.529Z,85.88
2022-10-19T05:22:18.335Z,86.92
2022-10-19T05:25:21.120Z,87.10
2022-10-19T05:28:23.759Z,87.56
2022-10-19T05:31:28.559Z,88.33
2022-10-19T05:34:31.107Z,89.11
2022-10-19T05:37:34.181Z,88.95
2022-10-19T05:40:37.309Z,84.81
2022-10-19T05:43:40.975Z,86.17
2022-10-19T05:46:44.016Z,87.49
2022-10-19T05:49:48.002Z,88.05
2022-10-19T05:52:50.578Z,88.63
2022-10-19T05:55:53.445Z,89.34
2022-10-19T05:58:57.325Z,89.33
2022-10-19T06:02:00.256Z,90.09
2022-10-19T06:05:03.273Z,90.39
2022-10-19T06:08:05.949Z,90.10
2022-10-19T06:11:20.569Z,90.08
2022-10-19T06:14:23.240Z,90.09
2022-10-19T06:17:28.867Z,90.01
2022-10-19T06:20:41.000Z,89.88
2022-10-19T06:23:44.216Z,89.75
2022-10-19T06:26:46.860Z,90.23
2022-10-19T06:29:49.762Z,90.62
2022-10-19T06:32:52.499Z,90.49
2022-10-19T06:35:55.953Z,90.69
2022-10-19T06:39:02.177Z,90.30
2022-10-19T06:42:05.160Z,89.93
2022-10-19T06:45:09.159Z,90.42
2022-10-19T06:48:12.094Z,89.65
2022-10-19T06:51:14.644Z,89.26
2022-10-19T06:54:17.563Z,89.11
2022-10-19T06:57:20.125Z,87.28
2022-10-19T07:00:23.238Z,87.22
2022-10-19T07:03:26.778Z,86.98
2022-10-19T07:06:29.792Z,86.21
2022-10-19T07:09:32.361Z,85.75
2022-10-19T07:12:35.217Z,84.94
2022-10-19T07:15:37.742Z,83.79
2022-10-19T07:18:41.538Z,83.07
2022-10-19T07:21:44.920Z,82.39
2022-10-19T07:24:47.850Z,82.15
2022-10-19T07:27:50.415Z,80.25
2022-10-19T07:30:53.847Z,80.60
2022-10-19T07:34:01.790Z,79.83
2022-10-19T07:37:04.723Z,78.91
2022-10-19T07:40:08.244Z,77.82
2022-10-19T07:43:11.137Z,77.05
2022-10-19T07:46:29.113Z,76.34
2022-10-19T07:49:32.020Z,75.92
2022-10-19T07:52:36.849Z,74.42
2022-10-19T07:55:40.472Z,73.48
2022-10-19T07:58:43.153Z,71.95
2022-10-19T08:01:47.690Z,69.82
2022-10-19T08:05:10.404Z,69.62
2022-10-19T08:08:13.882Z,69.85
2022-10-19T08:11:21.175Z,68.96
2022-10-19T08:14:23.856Z,68.95
2022-10-19T08:17:26.782Z,67.76
2022-10-19T08:20:29.840Z,68.45
2022-10-19T08:23:32.689Z,68.75
2022-10-19T08:26:38.278Z,68.33
2022-10-19T08:29:41.180Z,68.06
2022-10-19T08:32:43.715Z,66.44
2022-10-19T08:35:46.539Z,65.20
2022-10-19T08:38:50.328Z,65.10
2022-10-19T08:42:00.642Z,64.89
2022-10-19T08:45:24.129Z,62.09
2022-10-19T08:48:32.910Z,62.60
2022-10-19T08:51:38.522Z,62.12
2022-10-19T08:54:51.547Z,62.29
2022-10-19T08:58:03.724Z,60.48
2022-10-19T09:01:25.588Z,60.43
2022-10-19T09:04:34.343Z,59.39
2022-10-19T09:07:45.502Z,58.50
2022-10-19T09:10:51.126Z,58.32
2022-10-19T09:14:06.403Z,57.95
2022-10-19T09:17:17.178Z,55.43
2022-10-19T09:20:23.605Z,55.37
2022-10-19T09:23:35.691Z,55.53
2022-10-19T09:26:50.478Z,54.30
2022-10-19T09:29:58.133Z,53.63
2022-10-19T09:33:02.268Z,53.03
2022-10-19T09:36:06.281Z,51.95
2022-10-19T09:39:15.469Z,50.95
2022-10-19T09:42:24.000Z,50.88
2022-10-19T09:45:51.599Z,50.37
2022-10-19T09:48:54.231Z,49.11
2022-10-19T09:51:57.111Z,47.97
2022-10-19T09:55:07.784Z,47.63
2022-10-19T09:58:14.305Z,47.45
2022-10-19T10:01:41.812Z,46.05
2022-10-19T10:04:47.518Z,45.72
2022-10-19T10:07:54.937Z,44.90
2022-10-19T10:11:07.094Z,45.28
2022-10-19T10:14:25.576Z,44.94
2022-10-19T10:17:30.617Z,43.58
2022-10-19T10:20:34.916Z,43.21
2022-10-19T10:23:38.243Z,42.59
2022-10-19T10:26:46.480Z,42.11
2022-10-19T10:33:13.231Z,40.92
2022-10-19T10:36:24.077Z,44.97
2022-10-19T10:39:28.473Z,45.49
2022-10-19T10:42:37.641Z,44.48
2022-10-19T10:45:43.132Z,43.31
2022-10-19T10:48:53.787Z,44.38
2022-10-19T10:51:58.498Z,43.13
2022-10-19T10:55:05.113Z,41.85
2022-10-19T10:58:15.835Z,40.88
2022-10-19T11:01:23.883Z,42.63
2022-10-19T11:04:38.321Z,43.45
2022-10-19T11:07:45.327Z,41.09
2022-10-19T11:10:58.641Z,39.44
2022-10-19T11:14:22.778Z,38.44
2022-10-19T11:17:28.912Z,36.87
2022-10-19T11:20:32.899Z,37.43
2022-10-19T11:23:40.919Z,36.86
2022-10-19T11:26:52.819Z,35.81
2022-10-19T11:30:08.145Z,38.95
2022-10-19T11:33:40.727Z,42.53
2022-10-19T11:37:05.843Z,46.10
2022-10-19T11:40:45.821Z,43.61
2022-10-19T11:44:25.954Z,40.02
2022-10-19T11:47:51.362Z,37.93
2022-10-19T11:51:16.830Z,36.89
2022-10-19T11:54:42.604Z,35.50
2022-10-19T11:57:59.684Z,35.07
2022-10-19T12:01:32.671Z,35.48
2022-10-19T12:04:41.401Z,35.65
2022-10-19T12:08:07.495Z,34.11
2022-10-19T12:11:38.940Z,32.58
2022-10-19T12:14:44.124Z,30.81
2022-10-19T12:17:48.598Z,31.24
2022-10-19T12:20:53.051Z,31.30
2022-10-19T12:23:57.670Z,32.34
2022-10-19T12:27:01.209Z,32.58
2022-10-19T12:30:17.911Z,32.37
2022-10-19T12:33:41.060Z,32.41
2022-10-19T12:36:53.074Z,33.14
2022-10-19T12:40:01.048Z,32.52
2022-10-19T12:43:36.744Z,33.25
2022-10-19T12:46:49.619Z,33.22
2022-10-19T12:49:56.218Z,34.02
2022-10-19T12:52:58.754Z,33.88
2022-10-19T12:56:03.033Z,34.15
2022-10-19T12:59:05.700Z,34.33
2022-10-19T13:02:25.903Z,34.52
2022-10-19T13:05:30.704Z,37.24
2022-10-19T13:08:53.871Z,37.23
2022-10-19T13:12:17.800Z,37.09
2022-10-19T13:15:34.366Z,37.22
2022-10-19T13:18:59.198Z,38.83
2022-10-19T13:22:02.121Z,38.78
2022-10-19T13:25:17.163Z,39.15
2022-10-19T13:28:29.252Z,40.48
2022-10-19T13:31:33.223Z,40.68
2022-10-19T13:34:36.336Z,41.56
2022-10-19T13:37:39.432Z,42.26
2022-10-19T13:40:49.091Z,43.21
2022-10-19T13:44:12.095Z,44.04
2022-10-19T13:47:26.830Z,45.27
2022-10-19T13:50:39.392Z,45.81
2022-10-19T13:54:10.034Z,46.07
2022-10-19T13:57:27.732Z,46.00
2022-10-19T14:00:58.687Z,46.72
2022-10-19T14:04:21.318Z,47.34
2022-10-19T14:07:33.439Z,47.07
2022-10-19T14:11:00.249Z,46.32
2022-10-19T14:14:09.518Z,46.46
2022-10-19T14:17:24.688Z,46.04
2022-10-19T14:20:38.334Z,46.59
2022-10-19T14:23:41.265Z,46.10
2022-10-19T14:26:43.908Z,46.47
2022-10-19T14:29:51.539Z,46.78
2022-10-19T14:32:58.062Z,48.04
2022-10-19T14:36:08.218Z,47.20
2022-10-19T14:39:33.702Z,47.87
2022-10-19T14:42:43.079Z,47.83
2022-10-19T14:45:45.726Z,47.75
2022-10-19T14:48:50.450Z,48.28
2022-10-19T14:51:58.148Z,49.45
2022-10-19T14:55:06.631Z,48.70
2022-10-19T14:58:13.576Z,48.56
2022-10-19T15:01:19.608Z,49.22
2022-10-19T15:04:25.252Z,49.51
2022-10-19T15:07:38.408Z,50.70
2022-10-19T15:10:44.072Z,50.53
2022-10-19T15:13:49.421Z,51.39
2022-10-19T15:17:01.133Z,51.39
2022-10-19T15:20:27.629Z,51.87
2022-10-19T15:23:46.102Z,52.25
2022-10-19T15:27:06.589Z,51.70
2022-10-19T15:30:17.629Z,51.55
2022-10-19T15:33:20.516Z,51.99
2022-10-19T15:36:23.900Z,51.56
2022-10-19T15:39:38.764Z,51.57
2022-10-19T15:42:48.798Z,51.84
2022-10-19T15:46:04.850Z,51.71
2022-10-19T15:49:16.243Z,52.59
2022-10-19T15:52:24.903Z,52.21
2022-10-19T15:55:27.403Z,52.78
2022-10-19T15:58:30.417Z,52.76
2022-10-19T16:01:33.637Z,52.27
2022-10-19T16:04:36.462Z,52.43
2022-10-19T16:07:40.770Z,52.67
2022-10-19T16:10:47.151Z,52.89
2022-10-19T16:13:50.216Z,52.81
2022-10-19T16:16:53.291Z,53.29
2022-10-19T16:19:56.103Z,53.68
2022-10-19T16:22:59.007Z,53.94
2022-10-19T16:26:01.800Z,54.38
2022-10-19T16:29:04.696Z,54.29
2022-10-19T16:32:07.445Z,55.00
2022-10-19T16:35:11.588Z,55.06
2022-10-19T16:38:14.534Z,55.67
2022-10-19T16:41:17.651Z,55.72
2022-10-19T16:44:20.171Z,56.18
2022-10-19T16:47:23.062Z,56.72
2022-10-19T16:50:29.006Z,57.44
2022-10-19T16:53:32.883Z,57.59
2022-10-19T16:56:36.653Z,57.39
2022-10-19T16:59:39.661Z,58.39
2022-10-19T17:02:44.423Z,58.49
2022-10-19T17:05:49.221Z,58.98
2022-10-19T17:09:30.197Z,58.64
2022-10-19T17:12:16.696Z,59.38
2022-10-19T17:18:43.811Z,59.95
2022-10-19T17:21:47.003Z,60.47
2022-10-19T17:24:52.284Z,60.61
2022-10-19T17:27:55.154Z,61.42
2022-10-19T17:31:14.172Z,62.18
2022-10-19T17:34:17.952Z,62.57
2022-10-19T17:37:20.804Z,62.49
2022-10-19T17:40:33.096Z,63.46
2022-10-19T17:43:37.977Z,63.35
2022-10-19T17:46:42.803Z,63.66
2022-10-19T17:49:46.038Z,64.34
2022-10-19T17:52:49.714Z,64.41
2022-10-19T17:55:52.675Z,64.16
2022-10-19T17:58:57.347Z,64.42
2022-10-19T18:02:00.343Z,64.70
2022-10-19T18:05:04.657Z,65.34
2022-10-19T18:08:08.652Z,66.07
2022-10-19T18:11:14.338Z,67.96
2022-10-19T18:14:17.297Z,68.48
2022-10-19T18:17:24.054Z,66.45
2022-10-19T18:20:32.416Z,65.54
2022-10-19T18:23:36.522Z,64.02
2022-10-19T18:26:39.700Z,65.16
2022-10-19T18:29:43.249Z,64.64
2022-10-19T18:32:49.672Z,64.80
2022-10-19T18:35:57.991Z,63.71
2022-10-19T18:39:05.587Z,62.97
2022-10-19T18:42:12.804Z,61.89
2022-10-19T18:45:16.208Z,62.97
2022-10-19T18:48:19.665Z,62.79
2022-10-19T18:51:23.964Z,62.83
2022-10-19T18:54:28.126Z,63.00
2022-10-19T18:57:31.994Z,62.99
2022-10-19T19:00:36.664Z,64.22
2022-10-19T19:03:41.666Z,64.38
2022-10-19T19:06:44.591Z,63.91
2022-10-19T19:09:47.214Z,64.61
2022-10-19T19:12:51.315Z,63.84
2022-10-19T19:15:59.041Z,64.60
2022-10-19T19:19:03.474Z,63.83
2022-10-19T19:22:08.711Z,64.28
2022-10-19T19:25:12.162Z,64.00
2022-10-19T19:28:14.751Z,63.04
2022-10-19T19:31:19.210Z,63.26
2022-10-19T19:34:22.101Z,63.56
2022-10-19T19:37:25.338Z,63.74
2022-10-19T19:40:34.419Z,64.33
2022-10-19T19:43:38.360Z,64.99
2022-10-19T19:46:40.985Z,64.63
2022-10-19T19:49:44.184Z,64.92
2022-10-19T19:52:48.617Z,65.10
2022-10-19T19:55:53.782Z,64.77
2022-10-19T19:58:58.223Z,64.48
2022-10-19T20:02:01.967Z,64.93
2022-10-19T20:05:05.364Z,64.84
2022-10-19T20:08:08.893Z,65.21
2022-10-19T20:11:13.812Z,65.56
2022-10-19T20:14:18.796Z,65.28
2022-10-19T20:17:23.866Z,64.67
2022-10-19T20:20:29.368Z,64.71
2022-10-19T20:23:33.264Z,64.29
2022-10-19T20:26:36.144Z,65.13
2022-10-19T20:29:40.818Z,65.16
2022-10-19T20:32:44.715Z,65.15
2022-10-19T20:35:48.713Z,64.67
2022-10-19T20:38:57.448Z,64.80
2022-10-19T20:42:01.652Z,65.36
2022-10-19T20:45:04.967Z,66.48
2022-10-19T20:48:08.074Z,66.20
2022-10-19T20:51:13.927Z,66.28
2022-10-19T20:54:17.004Z,67.37
2022-10-19T20:57:19.822Z,67.40
2022-10-19T21:00:22.694Z,67.60
2022-10-19T21:03:25.365Z,67.57
2022-10-19T21:06:30.436Z,67.82
2022-10-19T21:09:33.065Z,67.85
2022-10-19T21:12:36.231Z,67.54
2022-10-19T21:15:39.247Z,66.87
2022-10-19T21:18:43.004Z,66.67
2022-10-19T21:21:50.178Z,66.81
2022-10-19T21:24:53.221Z,67.08
2022-10-19T21:27:56.013Z,66.68
2022-10-19T21:31:09.407Z,66.94
2022-10-19T21:34:18.442Z,67.35
2022-10-19T21:37:21.258Z,67.31
2022-10-19T21:40:25.781Z,67.86
2022-10-19T21:43:28.977Z,68.62
2022-10-19T21:46:31.747Z,69.26
2022-10-19T21:49:34.940Z,69.33
2022-10-19T21:52:37.402Z,69.90
2022-10-19T21:55:40.222Z,69.75
2022-10-19T21:58:46.647Z,69.91
2022-10-19T22:01:49.552Z,70.05
2022-10-19T22:04:52.489Z,69.80
2022-10-19T22:07:55.106Z,70.02
2022-10-19T22:10:59.228Z,69.15
2022-10-19T22:14:02.917Z,68.92
2022-10-19T22:17:05.649Z,69.77
2022-10-19T22:20:08.779Z,69.42
2022-10-19T22:23:11.653Z,69.48
2022-10-19T22:26:15.924Z,69.13
2022-10-19T22:29:19.370Z,69.07
2022-10-19T22:32:21.921Z,68.76
2022-10-19T22:35:24.660Z,68.93
2022-10-19T22:38:28.569Z,69.18
2022-10-19T22:41:31.414Z,69.80
2022-10-19T22:44:34.061Z,70.21
2022-10-19T22:47:36.930Z,70.25
2022-10-19T22:50:41.631Z,70.48
2022-10-19T22:53:44.534Z,70.90
2022-10-19T22:56:47.085Z,71.48
2022-10-19T22:59:50.358Z,71.93
2022-10-19T23:02:52.937Z,72.01
2022-10-19T23:05:55.827Z,71.97
2022-10-19T23:08:58.380Z,71.67
2022-10-19T23:12:01.629Z,71.97
2022-10-19T23:15:04.359Z,71.17
2022-10-19T23:18:07.595Z,71.16
2022-10-19T23:21:12.575Z,71.76
2022-10-19T23:24:15.406Z,72.26
2022-10-19T23:27:17.934Z,71.70
2022-10-19T23:30:26.106Z,70.84
2022-10-19T23:33:28.668Z,70.68
2022-10-19T23:36:31.451Z,70.50
2022-10-19T23:39:34.037Z,70.36
2022-10-19T23:42:36.920Z,70.15
2022-10-19T23:45:39.698Z,70.23
2022-10-19T23:48:42.659Z,71.03
2022-10-19T23:51:45.250Z,71.06
2022-10-19T23:54:48.214Z,71.11
2022-10-19T23:57:50.829Z,71.79
